createdAt,value
2023-10-14T00:02:23.026Z,97.40
2023-10-14T00:04:54.144Z,97.20
2023-10-14T00:07:26.303Z,97.50
2023-10-14T00:09:53.636Z,97.40
2023-10-14T00:12:21.438Z,97.40
2023-10-14T00:14:49.725Z,96.90
2023-10-14T00:17:19.926Z,96.40
2023-10-14T00:19:57.014Z,97.40
2023-10-14T00:22:25.394Z,95.60
2023-10-14T00:24:53.969Z,96.30
2023-10-14T00:27:20.856Z,96.30
2023-10-14T00:29:48.680Z,96.20
2023-10-14T00:32:15.363Z,96.10
2023-10-14T00:34:44.176Z,96.10
2023-10-14T00:37:11.084Z,95.40
2023-10-14T00:39:37.818Z,96.80
2023-10-14T00:42:05.287Z,96.20
2023-10-14T00:44:34.752Z,97.40
2023-10-14T00:47:07.823Z,96.70
2023-10-14T00:49:43.588Z,96.00
2023-10-14T00:52:16.440Z,96.40
2023-10-14T00:54:47.812Z,97.10
2023-10-14T01:12:36.044Z,99.90
2023-10-14T01:15:11.777Z,99.90
2023-10-14T01:17:38.521Z,99.90
2023-10-14T01:20:17.394Z,99.90
2023-10-14T01:22:44.878Z,99.90
2023-10-14T01:25:16.518Z,99.90
2023-10-14T01:27:46.193Z,99.90
2023-10-14T01:30:16.106Z,99.90
2023-10-14T01:32:49.044Z,99.90
2023-10-14T01:35:28.051Z,99.90
2023-10-14T01:37:55.748Z,99.90
2023-10-14T01:40:40.928Z,99.90
2023-10-14T01:43:08.171Z,99.90
2023-10-14T01:45:41.897Z,99.90
2023-10-14T01:48:11.615Z,99.90
2023-10-14T01:50:48.247Z,99.90
2023-10-14T01:53:19.288Z,98.00
2023-10-14T01:55:47.127Z,98.90
2023-10-14T01:58:34.193Z,98.40
2023-10-14T02:01:14.790Z,98.40
2023-10-14T02:03:46.236Z,98.30
2023-10-14T02:06:18.408Z,98.10
2023-10-14T02:08:55.102Z,98.90
2023-10-14T04:37:53.699Z,97.40
2023-10-14T04:40:38.130Z,99.90
2023-10-14T04:43:17.702Z,99.90
2023-10-14T04:45:52.441Z,99.90
2023-10-14T04:48:20.730Z,99.90
2023-10-14T04:50:47.888Z,99.90
2023-10-14T04:53:14.557Z,99.90
2023-10-14T04:55:44.508Z,99.90
2023-10-14T04:58:16.552Z,99.90
2023-10-14T05:00:44.000Z,99.90
2023-10-14T05:03:13.343Z,99.90
2023-10-14T05:05:42.710Z,99.90
2023-10-14T05:08:35.010Z,99.90
2023-10-14T05:11:17.589Z,99.90
2023-10-14T05:14:10.983Z,99.90
2023-10-14T05:22:21.177Z,99.90
2023-10-14T05:24:51.433Z,99.90
2023-10-14T05:27:18.873Z,99.90
2023-10-14T05:29:54.672Z,99.90
2023-10-14T05:32:32.561Z,99.90
2023-10-14T05:35:00.489Z,99.90
2023-10-14T05:37:27.478Z,99.90
2023-10-14T05:42:23.236Z,99.90
2023-10-14T05:44:58.833Z,99.90
2023-10-14T05:47:29.745Z,99.90
2023-10-14T05:49:56.989Z,99.90
2023-10-14T05:57:19.484Z,99.90
2023-10-14T05:59:48.876Z,99.90
2023-10-14T06:07:10.606Z,99.90
2023-10-14T06:09:45.782Z,99.90
2023-10-14T06:12:15.425Z,99.90
2023-10-14T06:14:42.700Z,99.90
2023-10-14T06:17:10.111Z,99.90
2023-10-14T06:19:38.102Z,99.90
2023-10-14T06:22:04.800Z,99.90
2023-10-14T06:24:31.543Z,99.90
2023-10-14T06:27:09.655Z,99.90
2023-10-14T06:29:36.870Z,99.90
2023-10-14T06:32:18.836Z,99.90
2023-10-14T06:34:48.726Z,99.90
2023-10-14T06:37:15.888Z,99.90
2023-10-14T06:39:43.064Z,99.90
2023-10-14T06:42:09.907Z,99.90
2023-10-14T06:44:36.531Z,99.90
2023-10-14T06:47:04.196Z,99.90
2023-10-14T06:49:33.903Z,99.90
2023-10-14T06:52:00.843Z,99.90
2023-10-14T06:54:27.626Z,99.90
2023-10-14T06:56:54.644Z,99.90
2023-10-14T06:59:21.958Z,99.90
2023-10-14T07:01:48.899Z,99.90
2023-10-14T07:04:17.866Z,99.90
2023-10-14T07:06:50.861Z,99.90
2023-10-14T07:09:24.274Z,99.90
2023-10-14T07:11:50.939Z,99.90
2023-10-14T07:14:19.424Z,99.90
2023-10-14T07:16:46.679Z,99.90
2023-10-14T07:19:13.384Z,99.90
2023-10-14T07:21:39.989Z,99.90
2023-10-14T07:24:06.881Z,99.90
2023-10-14T07:26:38.007Z,99.90
2023-10-14T07:29:06.716Z,99.90
2023-10-14T07:31:34.046Z,99.90
2023-10-14T07:34:04.366Z,99.90
2023-10-14T07:36:31.351Z,99.90
2023-10-14T07:39:03.622Z,99.90
2023-10-14T07:41:30.423Z,99.90
2023-10-14T07:43:57.047Z,99.90
2023-10-14T07:46:24.350Z,99.90
2023-10-14T07:48:54.313Z,99.90
2023-10-14T07:51:29.872Z,99.90
2023-10-14T07:53:57.581Z,99.90
2023-10-14T07:56:24.578Z,99.90
2023-10-14T07:58:54.272Z,99.90
2023-10-14T08:01:24.341Z,99.90
2023-10-14T08:03:51.381Z,99.90
2023-10-14T08:21:04.644Z,99.90
2023-10-14T08:23:31.358Z,99.90
2023-10-14T08:26:01.143Z,99.90
2023-10-14T08:28:28.416Z,99.90
2023-10-14T08:30:56.861Z,99.90
2023-10-14T08:33:24.308Z,99.90
2023-10-14T08:35:52.154Z,99.90
2023-10-14T08:38:22.791Z,99.90
2023-10-14T08:40:58.913Z,99.90
2023-10-14T08:43:32.071Z,99.90
2023-10-14T08:50:58.808Z,99.90
2023-10-14T08:55:59.042Z,99.90
2023-10-14T08:58:27.530Z,99.90
2023-10-14T09:00:55.136Z,99.90
2023-10-14T09:03:21.969Z,99.90
2023-10-14T09:05:48.649Z,99.90
2023-10-14T09:08:16.003Z,99.90
2023-10-14T09:10:43.330Z,99.90
2023-10-14T09:13:11.513Z,99.90
2023-10-14T09:15:40.470Z,99.90
2023-10-14T09:18:20.571Z,99.90
2023-10-14T09:20:57.200Z,99.90
2023-10-14T09:23:25.226Z,99.90
2023-10-14T09:25:56.890Z,99.90
2023-10-14T09:28:24.969Z,99.90
2023-10-14T09:30:52.317Z,99.90
2023-10-14T09:33:23.248Z,99.90
2023-10-14T09:35:51.257Z,99.90
2023-10-14T09:38:23.379Z,99.90
2023-10-14T09:40:58.310Z,99.90
2023-10-14T09:43:25.872Z,99.90
2023-10-14T09:45:53.343Z,99.90
2023-10-14T09:48:20.610Z,99.90
2023-10-14T09:50:48.613Z,99.90
2023-10-14T09:53:16.290Z,99.90
2023-10-14T09:55:43.801Z,99.90
2023-10-14T09:58:13.037Z,99.90
2023-10-14T10:00:40.510Z,99.90
2023-10-14T10:03:09.033Z,99.90
2023-10-14T10:05:40.450Z,99.90
2023-10-14T10:08:10.490Z,99.90
2023-10-14T10:10:37.918Z,99.90
2023-10-14T10:13:05.085Z,99.90
2023-10-14T10:15:36.495Z,99.90
2023-10-14T10:18:07.202Z,99.90
2023-10-14T10:20:37.723Z,99.90
2023-10-14T10:23:06.724Z,99.90
2023-10-14T10:25:36.401Z,99.90
2023-10-14T10:28:24.625Z,99.90
2023-10-14T10:30:51.248Z,99.90
2023-10-14T10:33:17.822Z,99.90
2023-10-14T10:36:00.662Z,99.90
2023-10-14T10:38:29.224Z,99.90
2023-10-14T10:41:14.844Z,99.90
2023-10-14T10:43:41.455Z,99.90
2023-10-14T10:46:28.087Z,99.90
2023-10-14T10:48:54.823Z,99.90
2023-10-14T10:51:22.353Z,99.90
2023-10-14T10:53:50.168Z,99.90
2023-10-14T10:56:19.661Z,99.90
2023-10-14T10:58:46.290Z,99.90
2023-10-14T11:01:13.927Z,99.90
2023-10-14T11:03:42.652Z,99.90
2023-10-14T11:06:14.540Z,99.90
2023-10-14T11:08:41.272Z,99.90
2023-10-14T11:11:08.434Z,99.90
2023-10-14T11:13:37.777Z,99.90
2023-10-14T11:16:17.190Z,99.90
2023-10-14T11:18:48.459Z,99.90
2023-10-14T11:21:19.071Z,99.90
2023-10-14T11:23:45.903Z,99.90
2023-10-14T11:26:13.340Z,99.90
2023-10-14T11:28:40.850Z,99.90
2023-10-14T11:31:10.766Z,99.90
2023-10-14T11:33:38.108Z,99.90
2023-10-14T11:36:05.524Z,99.90
2023-10-14T11:38:32.804Z,99.90
2023-10-14T11:40:59.921Z,99.90
2023-10-14T11:43:26.579Z,99.90
2023-10-14T11:45:56.310Z,99.90
2023-10-14T11:48:23.892Z,99.90
2023-10-14T11:50:54.238Z,99.90
2023-10-14T11:53:28.635Z,99.90
2023-10-14T11:55:59.842Z,99.90
2023-10-14T11:58:30.741Z,99.90
2023-10-14T12:00:57.876Z,99.90
2023-10-14T12:03:27.702Z,99.90
2023-10-14T12:06:01.261Z,99.90
2023-10-14T12:08:28.966Z,99.90
2023-10-14T12:10:56.031Z,99.90
2023-10-14T12:13:31.007Z,99.90
2023-10-14T12:16:06.569Z,99.90
2023-10-14T12:18:36.301Z,99.90
2023-10-14T12:21:06.420Z,99.90
2023-10-14T12:23:33.067Z,99.90
2023-10-14T12:26:01.648Z,99.90
2023-10-14T12:28:32.873Z,99.90
2023-10-14T12:31:00.499Z,99.90
2023-10-14T12:33:32.785Z,99.90
2023-10-14T12:36:00.758Z,99.90
2023-10-14T12:38:28.568Z,99.90
2023-10-14T12:40:55.309Z,99.90
2023-10-14T12:43:34.378Z,99.90
2023-10-14T12:46:10.925Z,99.90
2023-10-14T12:48:40.349Z,99.90
2023-10-14T12:51:13.602Z,99.90
2023-10-14T12:53:46.942Z,99.90
2023-10-14T12:56:17.791Z,99.90
2023-10-14T12:58:44.958Z,99.90
2023-10-14T13:01:18.346Z,99.90
2023-10-14T13:03:47.564Z,99.90
2023-10-14T13:06:15.267Z,99.90
2023-10-14T13:08:41.967Z,99.90
2023-10-14T13:11:08.723Z,97.90
2023-10-14T13:13:35.437Z,98.20
2023-10-14T13:16:02.477Z,99.20
2023-10-14T13:18:29.130Z,99.40
2023-10-14T13:21:00.747Z,99.90
2023-10-14T13:26:20.351Z,93.10
2023-10-14T13:36:15.287Z,83.80
2023-10-14T13:38:42.029Z,78.80
2023-10-14T13:41:09.153Z,80.70
2023-10-14T13:43:36.109Z,83.90
2023-10-14T13:46:05.347Z,78.80
2023-10-14T13:48:32.414Z,78.00
2023-10-14T13:50:59.631Z,73.40
2023-10-14T13:53:26.579Z,71.50
2023-10-14T13:55:56.628Z,70.30
2023-10-14T14:00:57.013Z,73.30
2023-10-14T14:03:30.077Z,71.70
2023-10-14T14:05:57.219Z,73.30
2023-10-14T14:08:27.159Z,73.00
2023-10-14T14:11:00.062Z,74.40
2023-10-14T14:13:27.821Z,76.90
2023-10-14T14:15:54.757Z,70.80
2023-10-14T14:18:21.589Z,69.70
2023-10-14T14:20:50.688Z,70.70
2023-10-14T14:23:19.044Z,70.40
2023-10-14T14:25:45.703Z,67.90
2023-10-14T14:28:12.472Z,72.30
2023-10-14T14:30:40.607Z,72.70
2023-10-14T14:33:09.264Z,76.30
2023-10-14T14:40:35.013Z,84.60
2023-10-14T14:45:29.323Z,82.90
2023-10-14T14:47:57.028Z,79.80
2023-10-14T14:50:25.814Z,85.30
2023-10-14T14:52:52.779Z,93.20
2023-10-14T14:55:19.566Z,84.20
2023-10-14T15:00:27.135Z,83.10
2023-10-14T15:03:00.738Z,84.00
2023-10-14T15:05:31.367Z,89.70
2023-10-14T15:07:59.350Z,89.50
2023-10-14T15:10:26.059Z,88.00
2023-10-14T15:15:22.828Z,90.40
2023-10-14T15:20:19.189Z,81.90
2023-10-14T15:22:46.748Z,83.20
2023-10-14T15:25:14.545Z,84.00
2023-10-14T15:27:44.059Z,84.60
2023-10-14T15:30:14.413Z,87.10
2023-10-14T15:32:45.204Z,89.30
2023-10-14T15:35:14.532Z,90.30
2023-10-14T15:37:42.866Z,91.20
2023-10-14T15:40:09.975Z,91.50
2023-10-14T15:42:36.988Z,91.40
2023-10-14T15:47:40.235Z,91.40
2023-10-14T15:52:59.107Z,92.80
2023-10-14T15:55:28.416Z,93.40
2023-10-14T15:58:05.758Z,93.10
2023-10-14T16:00:35.595Z,92.90
2023-10-14T16:03:03.695Z,94.30
2023-10-14T16:05:34.937Z,93.70
2023-10-14T16:08:02.225Z,93.60
2023-10-14T16:10:32.068Z,94.40
2023-10-14T16:12:59.726Z,94.20
2023-10-14T16:15:30.661Z,94.70
2023-10-14T16:18:01.646Z,94.40
2023-10-14T16:22:56.525Z,93.60
2023-10-14T16:25:23.535Z,94.40
2023-10-14T16:27:50.990Z,95.10
2023-10-14T16:30:18.431Z,94.70
2023-10-14T16:32:45.974Z,94.60
2023-10-14T16:35:15.137Z,94.20
2023-10-14T16:37:42.393Z,94.80
2023-10-14T16:40:19.458Z,94.90
2023-10-14T16:42:50.298Z,94.80
2023-10-14T16:47:45.542Z,94.70
2023-10-14T16:50:16.416Z,95.10
2023-10-14T16:52:43.721Z,95.60
2023-10-14T16:55:12.871Z,96.20
2023-10-14T16:57:46.757Z,95.70
2023-10-14T17:00:14.105Z,95.70
2023-10-14T17:02:41.701Z,96.50
2023-10-14T17:07:35.696Z,96.10
2023-10-14T17:10:02.462Z,96.30
2023-10-14T17:12:29.343Z,96.30
2023-10-14T17:14:56.045Z,96.10
2023-10-14T17:17:22.802Z,96.30
2023-10-14T17:19:49.516Z,96.40
2023-10-14T17:22:16.870Z,96.50
2023-10-14T17:27:11.694Z,97.20
2023-10-14T17:29:39.776Z,96.80
2023-10-14T17:32:06.531Z,96.90
2023-10-14T17:37:00.595Z,97.20
2023-10-14T17:39:27.915Z,98.60
2023-10-14T17:41:54.711Z,98.50
2023-10-14T17:46:48.584Z,98.00
2023-10-14T17:49:15.411Z,99.50
2023-10-14T17:51:42.692Z,99.20
2023-10-14T17:54:09.379Z,98.70
2023-10-14T17:56:36.054Z,99.90
2023-10-14T17:59:02.779Z,99.90
2023-10-14T18:01:29.780Z,99.90
2023-10-14T18:03:57.338Z,99.90
2023-10-14T18:06:24.948Z,99.90
2023-10-14T18:08:53.394Z,99.90
2023-10-14T18:11:20.112Z,99.70
2023-10-14T18:13:46.855Z,99.70
2023-10-14T18:16:13.577Z,99.90
2023-10-14T18:18:40.869Z,99.90
2023-10-14T18:21:09.029Z,99.90
2023-10-14T18:23:38.455Z,99.90
2023-10-14T18:26:09.011Z,99.90
2023-10-14T18:28:36.396Z,99.90
2023-10-14T18:31:03.193Z,99.80
2023-10-14T18:33:32.238Z,99.90
2023-10-14T18:36:05.789Z,99.90
2023-10-14T18:38:34.399Z,99.90
2023-10-14T18:41:02.914Z,99.90
2023-10-14T18:43:31.286Z,99.90
2023-10-14T18:45:58.052Z,99.90
2023-10-14T18:58:19.329Z,99.90
2023-10-14T19:00:47.941Z,99.90
2023-10-14T19:03:15.497Z,99.90
2023-10-14T19:05:42.519Z,99.90
2023-10-14T19:10:42.159Z,99.90
2023-10-14T19:13:09.631Z,99.90
2023-10-14T19:15:37.066Z,99.90
2023-10-14T19:18:04.766Z,99.90
2023-10-14T19:20:32.182Z,99.90
2023-10-14T19:23:06.922Z,99.90
2023-10-14T19:25:33.689Z,99.90
2023-10-14T19:28:00.356Z,99.90
2023-10-14T19:30:28.202Z,99.90
2023-10-14T19:32:54.848Z,99.90
2023-10-14T19:35:21.525Z,99.90
2023-10-14T19:37:48.291Z,99.90
2023-10-14T19:40:16.059Z,99.90
2023-10-14T19:42:43.773Z,99.90
2023-10-14T19:45:11.461Z,99.90
2023-10-14T19:47:41.612Z,99.90
2023-10-14T19:50:13.168Z,99.90
2023-10-14T19:52:40.640Z,99.90
2023-10-14T19:55:22.875Z,99.90
2023-10-14T19:57:57.770Z,99.90
2023-10-14T20:00:27.883Z,99.90
2023-10-14T20:02:56.288Z,99.90
2023-10-14T20:05:23.878Z,99.90
2023-10-14T20:07:51.633Z,99.90
2023-10-14T20:10:19.926Z,99.90
2023-10-14T20:12:47.518Z,99.90
2023-10-14T20:15:14.228Z,99.90
2023-10-14T20:17:41.280Z,99.90
2023-10-14T20:20:10.115Z,99.90
2023-10-14T20:22:36.810Z,99.90
2023-10-14T20:52:13.472Z,99.90
